createdAt,value
2018-12-13T00:00:57.293Z,64.02
2018-12-13T00:03:27.679Z,63.96
2018-12-13T00:05:56.478Z,64.37
2018-12-13T00:08:28.439Z,64.48
2018-12-13T00:10:57.138Z,64.75
2018-12-13T00:13:29.059Z,64.69
2018-12-13T00:16:01.614Z,64.65
2018-12-13T00:18:35.331Z,64.52
2018-12-13T00:21:09.732Z,64.28
2018-12-13T00:23:40.635Z,64.69
2018-12-13T00:26:10.450Z,64.20
2018-12-13T00:28:48.319Z,64.64
2018-12-13T00:31:17.851Z,64.92
2018-12-13T00:33:46.719Z,64.84
2018-12-13T00:36:15.740Z,64.62
2018-12-13T00:39:01.423Z,64.92
2018-12-13T00:41:36.280Z,64.68
2018-12-13T00:44:04.562Z,64.72
2018-12-13T00:46:38.714Z,64.87
2018-12-13T00:49:20.884Z,64.34
2018-12-13T00:51:51.641Z,64.84
2018-12-13T00:54:21.598Z,64.46
2018-12-13T00:56:50.089Z,64.90
2018-12-13T00:59:19.345Z,64.52
2018-12-13T01:01:49.724Z,64.65
2018-12-13T01:04:20.756Z,64.68
2018-12-13T01:06:50.781Z,64.68
2018-12-13T01:09:20.208Z,64.43
2018-12-13T01:11:48.960Z,65.00
2018-12-13T01:14:17.694Z,65.12
2018-12-13T01:16:48.257Z,64.77
2018-12-13T01:19:20.477Z,64.74
2018-12-13T01:21:49.978Z,64.39
2018-12-13T01:24:19.865Z,64.31
2018-12-13T01:26:50.477Z,64.20
2018-12-13T01:29:20.076Z,64.33
2018-12-13T01:31:51.365Z,64.79
2018-12-13T01:34:21.855Z,64.70
2018-12-13T01:36:52.506Z,64.50
2018-12-13T01:39:26.577Z,63.70
2018-12-13T01:41:57.029Z,63.92
2018-12-13T01:44:29.283Z,63.93
2018-12-13T01:46:59.510Z,64.06
2018-12-13T01:49:29.286Z,64.73
2018-12-13T01:51:59.927Z,64.71
2018-12-13T01:54:31.033Z,64.80
2018-12-13T01:57:01.453Z,64.42
2018-12-13T01:59:39.582Z,65.05
2018-12-13T02:02:15.750Z,64.43
2018-12-13T02:04:50.595Z,65.00
2018-12-13T02:07:26.999Z,65.64
2018-12-13T02:09:59.116Z,65.35
2018-12-13T02:12:28.739Z,65.31
2018-12-13T02:17:38.117Z,65.77
2018-12-13T02:20:09.328Z,65.83
2018-12-13T02:22:39.844Z,65.58
2018-12-13T02:25:10.786Z,65.58
2018-12-13T02:27:42.159Z,66.04
2018-12-13T02:30:15.126Z,66.14
2018-12-13T02:32:51.079Z,66.52
2018-12-13T02:35:21.646Z,66.01
2018-12-13T02:38:02.370Z,66.32
2018-12-13T02:40:34.488Z,66.44
2018-12-13T02:43:03.918Z,66.86
2018-12-13T02:51:33.602Z,66.69
2018-12-13T02:54:04.763Z,67.16
2018-12-13T02:56:33.763Z,66.74
2018-12-13T02:59:02.038Z,66.91
2018-12-13T03:01:30.766Z,66.96
2018-12-13T03:03:59.051Z,66.05
2018-12-13T03:06:27.398Z,66.04
2018-12-13T03:12:08.203Z,65.98
2018-12-13T03:14:40.422Z,66.25
2018-12-13T03:17:09.559Z,65.85
2018-12-13T03:19:38.705Z,65.76
2018-12-13T03:22:07.708Z,65.78
2018-12-13T03:24:38.111Z,66.39
2018-12-13T03:27:07.099Z,65.94
2018-12-13T03:29:36.572Z,66.69
2018-12-13T03:32:06.093Z,66.04
2018-12-13T03:34:35.460Z,66.53
2018-12-13T03:37:04.627Z,66.61
2018-12-13T03:39:34.254Z,66.48
2018-12-13T03:42:04.014Z,66.87
2018-12-13T03:44:32.758Z,66.26
2018-12-13T03:47:01.549Z,66.56
2018-12-13T03:49:29.741Z,66.73
2018-12-13T03:51:58.286Z,66.42
2018-12-13T03:54:26.679Z,66.42
2018-12-13T03:56:55.184Z,66.39
2018-12-13T03:59:23.769Z,66.74
2018-12-13T04:01:52.387Z,66.11
2018-12-13T04:04:20.640Z,66.09
2018-12-13T04:06:50.335Z,66.69
2018-12-13T04:09:18.491Z,66.02
2018-12-13T04:11:46.739Z,66.60
2018-12-13T04:14:15.398Z,65.95
2018-12-13T04:16:47.178Z,66.11
2018-12-13T04:19:15.843Z,66.50
2018-12-13T04:21:44.309Z,66.32
2018-12-13T04:24:12.646Z,66.30
2018-12-13T04:26:41.312Z,66.03
2018-12-13T04:29:20.346Z,66.51
2018-12-13T04:31:49.249Z,66.41
2018-12-13T04:34:20.050Z,65.80
2018-12-13T04:36:50.312Z,65.76
2018-12-13T04:39:20.427Z,66.12
2018-12-13T04:41:49.281Z,65.61
2018-12-13T04:44:20.151Z,65.74
2018-12-13T04:47:11.495Z,66.32
2018-12-13T04:49:45.003Z,65.85
2018-12-13T04:52:13.475Z,65.80
2018-12-13T04:54:42.030Z,66.05
2018-12-13T04:57:10.934Z,65.76
2018-12-13T04:59:43.237Z,65.77
2018-12-13T05:02:13.962Z,66.01
2018-12-13T05:04:42.576Z,65.39
2018-12-13T05:07:13.213Z,65.14
2018-12-13T05:09:43.398Z,64.89
2018-12-13T05:12:12.131Z,64.85
2018-12-13T05:14:40.473Z,64.70
2018-12-13T05:17:10.543Z,63.91
2018-12-13T05:19:39.395Z,63.83
2018-12-13T05:22:07.745Z,63.99
2018-12-13T05:24:36.619Z,64.33
2018-12-13T05:27:04.897Z,63.77
2018-12-13T05:29:34.222Z,63.66
2018-12-13T05:32:03.474Z,63.19
2018-12-13T05:34:32.326Z,63.63
2018-12-13T05:37:00.787Z,63.53
2018-12-13T05:39:32.316Z,63.77
2018-12-13T05:42:00.675Z,63.38
2018-12-13T05:44:28.919Z,63.56
2018-12-13T05:48:09.880Z,63.80
2018-12-13T05:50:38.990Z,63.14
2018-12-13T05:53:08.412Z,63.56
2018-12-13T05:55:38.723Z,63.69
2018-12-13T05:58:07.531Z,63.69
2018-12-13T06:01:59.863Z,63.41
2018-12-13T06:04:28.397Z,63.72
2018-12-13T06:06:58.972Z,63.47
2018-12-13T06:09:30.571Z,64.17
2018-12-13T06:11:59.797Z,63.68
2018-12-13T06:14:32.756Z,64.35
2018-12-13T06:17:04.431Z,64.33
2018-12-13T06:19:33.316Z,65.07
2018-12-13T06:22:01.613Z,65.76
2018-12-13T06:24:34.506Z,66.12
2018-12-13T06:27:04.486Z,65.96
2018-12-13T06:29:41.697Z,66.44
2018-12-13T06:32:07.926Z,66.30
2018-12-13T06:34:36.724Z,66.38
2018-12-13T06:37:04.889Z,66.87
2018-12-13T06:39:35.297Z,66.53
2018-12-13T06:42:05.725Z,66.36
2018-12-13T06:44:37.594Z,66.52
2018-12-13T06:47:08.388Z,67.04
2018-12-13T06:49:39.416Z,67.13
2018-12-13T06:52:09.310Z,67.01
2018-12-13T06:54:39.046Z,66.73
2018-12-13T06:57:09.476Z,66.92
2018-12-13T06:59:38.806Z,67.03
2018-12-13T07:02:08.642Z,66.60
2018-12-13T07:04:38.623Z,66.84
2018-12-13T07:07:07.189Z,66.09
2018-12-13T07:09:35.706Z,66.31
2018-12-13T07:12:04.484Z,66.05
2018-12-13T07:14:37.340Z,66.15
2018-12-13T07:17:05.731Z,65.95
2018-12-13T07:19:35.468Z,65.46
2018-12-13T07:22:05.126Z,65.83
2018-12-13T07:24:39.766Z,65.14
2018-12-13T07:29:33.521Z,65.02
2018-12-13T07:32:02.837Z,64.62
2018-12-13T07:34:31.641Z,64.33
2018-12-13T07:37:00.641Z,64.82
2018-12-13T07:39:29.395Z,63.83
2018-12-13T07:42:03.104Z,64.11
2018-12-13T07:44:33.299Z,63.76
2018-12-13T07:47:02.948Z,63.63
2018-12-13T07:49:35.086Z,63.78
2018-12-13T07:52:08.862Z,63.27
2018-12-13T07:54:42.485Z,63.30
2018-12-13T07:57:12.303Z,62.75
2018-12-13T07:59:52.908Z,63.03
2018-12-13T08:02:24.508Z,63.08
2018-12-13T08:04:53.756Z,62.15
2018-12-13T08:07:25.787Z,62.59
2018-12-13T08:09:54.398Z,62.16
2018-12-13T08:12:29.270Z,61.80
2018-12-13T08:14:57.877Z,61.42
2018-12-13T08:17:34.722Z,61.60
2018-12-13T08:20:04.857Z,60.71
2018-12-13T08:22:38.988Z,61.25
2018-12-13T08:25:07.229Z,61.00
2018-12-13T08:27:44.427Z,61.17
2018-12-13T08:30:20.908Z,60.97
2018-12-13T08:32:49.612Z,60.96
2018-12-13T08:36:20.319Z,60.38
2018-12-13T08:38:48.657Z,60.07
2018-12-13T08:41:16.833Z,60.17
2018-12-13T08:45:57.749Z,59.76
2018-12-13T08:48:29.600Z,59.76
2018-12-13T08:50:59.499Z,59.26
2018-12-13T08:53:28.622Z,59.23
2018-12-13T08:56:09.956Z,58.83
2018-12-13T08:58:40.185Z,59.17
2018-12-13T09:01:10.363Z,58.26
2018-12-13T09:03:38.897Z,58.59
2018-12-13T09:06:19.611Z,58.67
2018-12-13T09:08:49.924Z,58.17
2018-12-13T09:11:19.967Z,58.65
2018-12-13T09:13:50.014Z,57.00
2018-12-13T09:16:20.038Z,57.15
2018-12-13T09:18:54.118Z,56.69
2018-12-13T09:21:24.306Z,56.48
2018-12-13T09:23:54.729Z,56.14
2018-12-13T09:26:26.140Z,56.41
2018-12-13T09:28:56.369Z,55.80
2018-12-13T09:31:26.281Z,55.52
2018-12-13T09:33:55.188Z,54.53
2018-12-13T09:38:18.492Z,54.45
2018-12-13T09:40:47.429Z,51.65
2018-12-13T09:43:23.097Z,48.91
2018-12-13T09:45:52.560Z,44.09
2018-12-13T09:48:21.252Z,43.56
2018-12-13T09:50:51.761Z,41.23
2018-12-13T09:56:11.517Z,46.14
2018-12-13T09:58:40.391Z,45.03
2018-12-13T10:01:12.340Z,41.74
2018-12-13T10:03:42.970Z,39.17
2018-12-13T10:06:12.057Z,38.24
2018-12-13T10:08:46.265Z,37.82
2018-12-13T10:11:13.711Z,37.51
2018-12-13T10:13:44.205Z,37.69
2018-12-13T10:16:15.547Z,37.31
2018-12-13T10:18:48.133Z,36.56
2018-12-13T10:21:24.534Z,36.87
2018-12-13T10:23:55.000Z,36.97
2018-12-13T10:26:24.309Z,36.02
2018-12-13T10:28:54.651Z,36.20
2018-12-13T10:31:28.107Z,35.71
2018-12-13T10:33:58.681Z,36.16
2018-12-13T10:36:28.199Z,35.46
2018-12-13T10:38:56.933Z,36.61
2018-12-13T10:41:27.652Z,36.62
2018-12-13T10:43:56.163Z,37.33
2018-12-13T10:46:28.386Z,37.06
2018-12-13T10:48:56.946Z,35.75
2018-12-13T10:51:25.315Z,36.48
2018-12-13T10:53:54.139Z,37.19
2018-12-13T10:56:22.359Z,36.65
2018-12-13T10:58:51.566Z,36.69
2018-12-13T11:01:26.268Z,36.94
2018-12-13T11:03:56.786Z,37.13
2018-12-13T11:06:30.112Z,37.52
2018-12-13T11:09:09.753Z,37.36
2018-12-13T11:11:46.568Z,37.14
2018-12-13T11:14:24.392Z,38.05
2018-12-13T11:16:54.440Z,39.94
2018-12-13T11:19:22.599Z,40.48
2018-12-13T11:21:50.611Z,39.96
2018-12-13T11:24:23.375Z,40.18
2018-12-13T11:26:52.837Z,39.62
2018-12-13T11:29:30.082Z,41.20
2018-12-13T11:32:01.776Z,41.34
2018-12-13T11:34:32.106Z,41.72
2018-12-13T11:39:47.117Z,40.45
2018-12-13T11:42:19.486Z,40.94
2018-12-13T11:44:49.738Z,41.22
2018-12-13T11:47:26.599Z,40.31
2018-12-13T11:49:55.539Z,40.27
2018-12-13T11:52:25.058Z,41.51
2018-12-13T11:54:54.659Z,43.11
2018-12-13T11:57:25.581Z,42.80
2018-12-13T11:59:54.342Z,43.35
2018-12-13T12:02:26.090Z,43.47
2018-12-13T12:04:55.149Z,42.90
2018-12-13T12:07:27.795Z,42.92
2018-12-13T12:10:00.215Z,43.58
2018-12-13T12:12:33.981Z,43.39
2018-12-13T12:15:04.840Z,44.00
2018-12-13T12:17:35.883Z,43.50
2018-12-13T12:20:05.576Z,43.18
2018-12-13T12:25:11.461Z,43.58
2018-12-13T12:27:43.407Z,42.71
2018-12-13T12:30:32.047Z,43.00
2018-12-13T12:33:02.457Z,42.51
2018-12-13T12:35:35.988Z,41.12
2018-12-13T12:38:11.280Z,39.67
2018-12-13T12:40:49.439Z,40.04
2018-12-13T12:43:19.001Z,40.55
2018-12-13T12:45:49.790Z,41.65
2018-12-13T12:48:19.077Z,41.54
2018-12-13T12:51:02.440Z,39.78
2018-12-13T12:53:39.081Z,41.36
2018-12-13T12:56:13.707Z,41.70
2018-12-13T12:58:49.230Z,39.08
2018-12-13T13:01:18.209Z,38.00
2018-12-13T13:03:47.898Z,37.85
2018-12-13T13:06:21.723Z,38.99
2018-12-13T13:08:50.439Z,40.87
2018-12-13T13:11:20.473Z,41.74
2018-12-13T13:13:50.053Z,42.45
2018-12-13T13:16:18.919Z,42.94
2018-12-13T13:18:47.270Z,43.07
2018-12-13T13:21:16.252Z,44.12
2018-12-13T13:23:47.165Z,43.62
2018-12-13T13:26:15.482Z,44.21
2018-12-13T13:28:44.751Z,44.95
2018-12-13T13:31:13.622Z,44.77
2018-12-13T13:33:43.778Z,45.84
2018-12-13T13:39:11.526Z,46.21
2018-12-13T13:41:41.201Z,46.23
2018-12-13T13:44:12.017Z,46.95
2018-12-13T13:46:53.439Z,47.20
2018-12-13T13:49:24.521Z,47.05
2018-12-13T13:51:54.204Z,47.11
2018-12-13T13:54:23.043Z,48.16
2018-12-13T13:56:52.740Z,47.91
2018-12-13T13:59:27.170Z,47.97
2018-12-13T14:01:56.429Z,47.79
2018-12-13T14:04:25.414Z,47.90
2018-12-13T14:08:06.316Z,48.17
2018-12-13T14:10:38.590Z,48.38
2018-12-13T14:13:10.274Z,48.73
2018-12-13T14:15:39.974Z,48.47
2018-12-13T14:18:11.312Z,49.16
2018-12-13T14:20:41.913Z,49.16
2018-12-13T14:23:10.301Z,48.64
2018-12-13T14:25:38.651Z,48.73
2018-12-13T14:28:14.222Z,48.57
2018-12-13T14:30:46.678Z,49.17
2018-12-13T14:33:22.486Z,49.90
2018-12-13T14:36:00.126Z,50.29
2018-12-13T14:38:29.013Z,50.23
2018-12-13T14:41:03.265Z,50.03
2018-12-13T14:43:34.281Z,50.25
2018-12-13T14:46:05.986Z,50.57
2018-12-13T14:48:41.317Z,50.96
2018-12-13T14:51:22.344Z,51.16
2018-12-13T14:53:51.922Z,51.00
2018-12-13T14:56:20.151Z,52.31
2018-12-13T14:58:49.277Z,52.34
2018-12-13T15:01:31.100Z,52.44
2018-12-13T15:04:00.320Z,53.16
2018-12-13T15:06:31.487Z,53.20
2018-12-13T15:09:00.726Z,53.41
2018-12-13T15:11:33.492Z,53.51
2018-12-13T15:14:11.361Z,53.39
2018-12-13T15:16:41.565Z,53.00
2018-12-13T15:19:19.166Z,53.43
2018-12-13T15:22:28.448Z,53.62
2018-12-13T15:25:03.262Z,54.33
2018-12-13T15:27:31.540Z,53.83
2018-12-13T15:30:06.854Z,54.53
2018-12-13T15:32:35.238Z,54.36
2018-12-13T15:35:04.694Z,54.32
2018-12-13T15:37:37.324Z,54.30
2018-12-13T15:40:07.245Z,54.25
2018-12-13T15:42:39.492Z,54.17
2018-12-13T15:48:02.106Z,54.73
2018-12-13T15:50:33.428Z,54.44
2018-12-13T15:53:03.294Z,54.72
2018-12-13T15:55:40.562Z,54.46
2018-12-13T15:58:13.374Z,54.29
2018-12-13T16:00:45.080Z,54.43
2018-12-13T16:03:17.801Z,54.56
2018-12-13T16:08:59.975Z,54.97
2018-12-13T16:11:31.176Z,54.46
2018-12-13T16:15:22.961Z,54.12
2018-12-13T16:18:04.335Z,54.57
2018-12-13T16:20:41.326Z,54.26
2018-12-13T16:23:24.373Z,54.21
2018-12-13T16:26:01.127Z,54.06
2018-12-13T16:28:33.922Z,54.54
2018-12-13T16:32:19.288Z,54.06
2018-12-13T16:34:48.596Z,54.00
2018-12-13T16:37:18.438Z,54.10
2018-12-13T16:39:47.208Z,54.53
2018-12-13T16:42:26.390Z,54.06
2018-12-13T16:44:57.546Z,54.42
2018-12-13T16:47:26.562Z,54.70
2018-12-13T16:49:54.917Z,54.07
2018-12-13T16:52:23.889Z,54.81
2018-12-13T16:54:52.638Z,54.58
2018-12-13T16:57:21.921Z,54.32
2018-12-13T16:59:52.499Z,54.86
2018-12-13T17:02:25.767Z,54.94
2018-12-13T17:05:03.178Z,55.02
2018-12-13T17:07:29.592Z,54.90
2018-12-13T17:09:59.813Z,54.46
2018-12-13T17:12:29.508Z,54.72
2018-12-13T17:15:07.171Z,55.03
2018-12-13T17:17:37.970Z,55.18
2018-12-13T17:20:12.627Z,54.92
2018-12-13T17:22:45.725Z,55.36
2018-12-13T17:25:17.807Z,54.85
2018-12-13T17:27:52.674Z,54.89
2018-12-13T17:30:22.240Z,54.93
2018-12-13T17:33:03.321Z,54.92
2018-12-13T17:35:35.491Z,54.90
2018-12-13T17:38:11.988Z,54.97
2018-12-13T17:40:47.990Z,55.29
2018-12-13T17:43:21.383Z,55.57
2018-12-13T17:46:16.873Z,55.65
2018-12-13T17:49:04.302Z,55.87
2018-12-13T17:51:36.776Z,55.30
2018-12-13T17:54:09.622Z,55.38
2018-12-13T17:56:52.966Z,55.45
2018-12-13T17:59:22.214Z,55.05
2018-12-13T18:02:46.202Z,55.25
2018-12-13T18:05:21.297Z,55.60
2018-12-13T18:07:56.299Z,55.40
2018-12-13T18:10:32.214Z,55.41
2018-12-13T18:13:00.458Z,55.17
2018-12-13T18:15:34.790Z,54.77
2018-12-13T18:18:04.063Z,55.02
2018-12-13T18:20:33.708Z,54.59
2018-12-13T18:23:14.113Z,54.88
2018-12-13T18:25:48.761Z,55.21
2018-12-13T18:33:35.321Z,55.05
2018-12-13T18:36:03.613Z,55.18
2018-12-13T18:41:14.126Z,54.62
2018-12-13T18:43:42.526Z,54.82
2018-12-13T18:46:22.346Z,55.43
2018-12-13T18:48:59.743Z,55.54
2018-12-13T18:51:29.774Z,55.01
2018-12-13T18:53:58.820Z,54.91
2018-12-13T18:56:29.021Z,54.92
2018-12-13T18:58:58.881Z,55.10
2018-12-13T19:01:46.553Z,54.91
2018-12-13T19:04:23.425Z,54.72
2018-12-13T19:09:53.426Z,55.30
2018-12-13T19:12:25.326Z,55.33
2018-12-13T19:15:09.490Z,55.13
2018-12-13T19:17:39.972Z,55.10
2018-12-13T19:20:46.638Z,54.83
2018-12-13T19:23:31.808Z,54.44
2018-12-13T19:26:17.042Z,55.09
2018-12-13T19:28:53.283Z,54.53
2018-12-13T19:31:29.515Z,55.17
2018-12-13T19:34:04.209Z,54.85
2018-12-13T19:36:33.753Z,54.45
2018-12-13T19:39:08.372Z,54.84
2018-12-13T19:41:51.394Z,55.05
2018-12-13T19:44:27.281Z,54.90
2018-12-13T19:46:58.924Z,54.44
2018-12-13T19:49:36.774Z,54.79
2018-12-13T19:52:08.929Z,54.87
2018-12-13T19:59:32.856Z,54.61
2018-12-13T20:04:56.551Z,54.62
2018-12-13T20:07:50.535Z,54.87
2018-12-13T20:10:40.392Z,55.34
2018-12-13T20:13:26.888Z,55.01
2018-12-13T20:16:29.179Z,54.62
2018-12-13T20:19:04.698Z,55.08
2018-12-13T20:21:40.681Z,54.94
2018-12-13T20:26:57.762Z,54.32
2018-12-13T20:31:48.555Z,54.38
2018-12-13T20:34:20.658Z,54.86
2018-12-13T20:36:55.348Z,54.56
2018-12-13T20:39:28.795Z,54.25
2018-12-13T20:41:59.465Z,54.18
2018-12-13T20:44:29.838Z,54.44
2018-12-13T20:49:21.526Z,54.77
2018-12-13T20:51:50.656Z,54.69
2018-12-13T20:54:23.701Z,54.92
2018-12-13T20:56:52.847Z,55.24
2018-12-13T21:00:46.554Z,54.75
2018-12-13T21:03:15.288Z,54.87
2018-12-13T21:05:43.462Z,54.63
2018-12-13T21:08:12.547Z,54.78
2018-12-13T21:10:45.119Z,55.27
2018-12-13T21:13:13.202Z,55.41
2018-12-13T21:15:44.393Z,55.26
2018-12-13T21:18:16.055Z,55.62
2018-12-13T21:20:45.318Z,55.81
2018-12-13T21:23:15.826Z,56.24
2018-12-13T21:25:45.678Z,56.68
2018-12-13T21:28:16.349Z,57.40
2018-12-13T21:30:51.249Z,57.58
2018-12-13T21:33:20.656Z,57.46
2018-12-13T21:35:53.101Z,57.95
2018-12-13T21:38:23.452Z,57.27
2018-12-13T21:40:51.782Z,58.04
2018-12-13T21:43:24.443Z,57.93
2018-12-13T21:45:53.552Z,58.02
2018-12-13T21:48:22.553Z,58.14
2018-12-13T21:50:50.764Z,58.61
2018-12-13T21:53:19.673Z,58.89
2018-12-13T21:55:49.672Z,58.82
2018-12-13T21:58:19.853Z,58.50
2018-12-13T22:00:51.314Z,58.68
2018-12-13T22:03:19.792Z,58.72
2018-12-13T22:05:49.102Z,59.15
2018-12-13T22:08:21.123Z,58.83
2018-12-13T22:10:51.709Z,58.88
2018-12-13T22:13:21.206Z,59.39
2018-12-13T22:15:50.396Z,59.31
2018-12-13T22:18:19.253Z,58.87
2018-12-13T22:20:55.988Z,58.58
2018-12-13T22:23:26.591Z,59.34
2018-12-13T22:28:43.171Z,59.70
2018-12-13T22:31:24.049Z,58.87
2018-12-13T22:33:53.429Z,58.64
2018-12-13T22:36:22.736Z,59.14
2018-12-13T22:38:52.961Z,59.30
2018-12-13T22:41:26.396Z,59.46
2018-12-13T22:43:55.171Z,59.38
2018-12-13T22:46:29.069Z,58.86
2018-12-13T22:49:04.879Z,58.80
2018-12-13T22:51:34.575Z,58.84
2018-12-13T22:54:05.755Z,59.10
2018-12-13T22:56:42.399Z,59.82
2018-12-13T22:59:13.242Z,59.79
2018-12-13T23:01:41.966Z,59.61
2018-12-13T23:04:11.757Z,60.17
2018-12-13T23:06:40.458Z,60.29
2018-12-13T23:09:23.670Z,59.92
2018-12-13T23:11:59.732Z,59.93
2018-12-13T23:14:33.685Z,60.38
2018-12-13T23:17:04.123Z,60.12
2018-12-13T23:19:42.785Z,59.74
2018-12-13T23:22:12.851Z,60.09
2018-12-13T23:24:45.451Z,60.19
2018-12-13T23:27:14.923Z,60.53
2018-12-13T23:29:43.909Z,60.25
2018-12-13T23:32:26.658Z,60.77
2018-12-13T23:34:58.281Z,61.24
2018-12-13T23:37:33.793Z,60.94
2018-12-13T23:40:08.437Z,61.57
2018-12-13T23:46:44.801Z,61.37
2018-12-13T23:49:18.384Z,61.73
2018-12-13T23:51:53.062Z,62.04
2018-12-13T23:54:21.971Z,62.17
2018-12-13T23:57:02.999Z,62.72
2018-12-13T23:59:33.444Z,62.65
